Terminal Aerodrome Forecast
Issued by NWS

Home | Current Version | Previous Version | Text Only | Print | Product List | Glossary On
Versions: 1 2 3 4 5 6 7 8 9 10 11 12 13 14 15 16 17 18 19 20 21 22 23 24
000
FTUS43 KDLH 302300 AAA
TAFBRD
TAF AMD
KBRD 302339Z 0100/0124 15009KT P6SM SCT200
     FM011000 18010KT P6SM VCSH BKN080
     FM011400 23006KT 6SM -RA SCT010 BKN025 OVC040
     FM012100 21006KT P6SM SCT100=

USA.gov is the U.S. government's official web portal to all federal, state and local government web resources and services.